Time;durP1;ratioP1;P1;durP2;ratioP2;P2;SDS_P1;SDS_P2;PMS_P1;PMS_P2;Temp;Humidity;BMP_temperature;BMP_pressure;BME280_temperature;BME280_humidity;BME280_pressure;Samples;Min_cycle;Max_cycle;Signal;HPM_P1;HPM_P2
2022/05/11 00:00:18;;;;;;;25.95;9.63;;;;;;;17.15;83.91;101006.66;5006439;28;20539;-82
2022/05/11 00:02:44;;;;;;;25.05;9.85;;;;;;;17.23;83.81;101007.63;5002457;28;20039;-80
2022/05/11 00:05:12;;;;;;;31.58;9.18;;;;;;;17.14;84.39;101003.03;4990869;28;20097;-82
2022/05/11 00:07:37;;;;;;;29.52;9.57;;;;;;;17.20;84.03;100996.88;4987013;28;20034;-80
2022/05/11 00:10:11;;;;;;;28.38;10.48;;;;;;;17.20;85.08;100993.22;4985953;28;20371;-81
2022/05/11 00:12:41;;;;;;;36.83;10.80;;;;;;;17.18;84.08;100993.38;4967767;28;20037;-81
2022/05/11 00:15:07;;;;;;;30.10;9.88;;;;;;;17.21;84.15;101001.34;4980081;28;20475;-80
2022/05/11 00:17:33;;;;;;;32.20;10.63;;;;;;;17.16;84.79;100978.84;4995270;28;20123;-80
2022/05/11 00:19:58;;;;;;;33.33;10.38;;;;;;;17.11;84.32;100974.84;4949491;28;20087;-82
2022/05/11 00:22:26;;;;;;;33.05;10.60;;;;;;;17.16;84.59;100983.50;5000705;28;20409;-81
2022/05/11 00:24:52;;;;;;;28.88;10.23;;;;;;;17.07;84.97;100980.69;5005595;28;20120;-80
2022/05/11 00:27:17;;;;;;;26.98;11.05;;;;;;;17.15;84.97;100979.00;4972000;28;20576;-81
2022/05/11 00:29:43;;;;;;;28.27;10.93;;;;;;;17.08;85.26;100974.09;4981126;28;20085;-81
2022/05/11 00:32:08;;;;;;;42.25;10.68;;;;;;;17.07;85.70;100972.38;5006131;28;20081;-81
2022/05/11 00:34:34;;;;;;;32.85;10.63;;;;;;;17.12;85.34;100966.38;5003462;28;20031;-83
2022/05/11 00:37:02;;;;;;;31.85;10.80;;;;;;;17.09;85.14;100963.94;4981793;28;20042;-82
2022/05/11 00:39:28;;;;;;;35.28;10.52;;;;;;;17.03;85.25;100959.03;4972068;28;20039;-82
2022/05/11 00:41:53;;;;;;;24.98;9.88;;;;;;;17.06;85.48;100965.09;4953952;28;20050;-80
2022/05/11 00:44:20;;;;;;;30.60;10.95;;;;;;;17.04;85.18;100944.19;4982417;28;20038;-80
2022/05/11 00:47:04;;;;;;;27.67;9.98;;;;;;;17.06;84.51;100948.50;4984839;28;20034;-82
2022/05/11 00:49:55;;;;;;;36.33;9.93;;;;;;;17.04;85.24;100942.28;4969886;28;20038;-81
2022/05/11 00:52:46;;;;;;;30.35;10.23;;;;;;;17.01;84.63;100934.28;4995178;28;20045;-82
2022/05/11 00:55:17;;;;;;;28.17;9.68;;;;;;;17.00;84.59;100932.53;5003849;28;20064;-80
2022/05/11 00:57:57;;;;;;;29.65;8.90;;;;;;;17.08;83.99;100938.13;5005913;28;20493;-81
2022/05/11 01:00:28;;;;;;;24.42;8.90;;;;;;;17.12;83.80;100938.72;5004854;28;20057;-82
2022/05/11 01:03:20;;;;;;;23.95;8.10;;;;;;;17.07;82.93;100922.59;4986899;28;20085;-81
2022/05/11 01:05:46;;;;;;;20.45;7.47;;;;;;;17.05;82.53;100921.88;4992996;28;20053;-82
2022/05/11 01:08:14;;;;;;;22.40;6.97;;;;;;;17.02;82.67;100919.44;4985375;28;20023;-81
2022/05/11 01:10:41;;;;;;;24.00;7.90;;;;;;;17.12;82.70;100930.41;5004975;28;20073;-81
2022/05/11 01:13:09;;;;;;;17.95;6.82;;;;;;;17.12;82.85;100926.75;4980410;28;20022;-79
2022/05/11 01:15:36;;;;;;;30.40;7.80;;;;;;;17.03;82.82;100921.16;5001237;28;20030;-81
2022/05/11 01:18:05;;;;;;;26.50;7.10;;;;;;;17.01;83.19;100926.00;4999381;28;20057;-80
2022/05/11 01:20:33;;;;;;;21.10;7.40;;;;;;;16.98;83.73;100914.41;5004354;28;20034;-79
2022/05/11 01:23:26;;;;;;;24.10;7.60;;;;;;;16.92;83.97;100909.50;5002944;28;20054;-81
2022/05/11 01:25:54;;;;;;;18.25;6.63;;;;;;;16.85;84.11;100890.78;4995196;28;20074;-80
2022/05/11 01:28:20;;;;;;;15.52;6.80;;;;;;;17.03;84.31;100914.78;4999109;28;20030;-82
2022/05/11 01:30:49;;;;;;;19.85;7.30;;;;;;;16.94;85.05;100915.72;5002334;28;20081;-80
2022/05/11 01:33:19;;;;;;;24.60;6.97;;;;;;;17.01;84.43;100914.94;4979790;28;20093;-81
2022/05/11 01:36:15;;;;;;;20.00;7.38;;;;;;;16.97;85.01;100910.78;5020717;28;20035;-81
2022/05/11 01:38:43;;;;;;;23.00;7.55;;;;;;;17.00;85.06;100895.72;4989636;28;20018;-81
2022/05/11 01:41:31;;;;;;;23.80;7.00;;;;;;;16.95;86.08;100901.75;4985741;28;20085;-81
2022/05/11 01:43:57;;;;;;;25.98;7.05;;;;;;;16.92;85.57;100887.38;4970257;28;20069;-81
2022/05/11 01:46:23;;;;;;;25.95;8.27;;;;;;;16.95;85.36;100879.63;4993440;28;20030;-82
2022/05/11 01:48:49;;;;;;;25.08;8.45;;;;;;;16.79;86.07;100874.81;5002885;28;20486;-82
2022/05/11 01:51:17;;;;;;;25.20;7.93;;;;;;;16.87;86.11;100887.84;4953303;28;20394;-82
2022/05/11 01:53:43;;;;;;;18.30;7.15;;;;;;;16.98;85.89;100881.19;4993631;28;20039;-81
2022/05/11 01:56:09;;;;;;;22.08;6.95;;;;;;;16.86;86.18;100872.31;4998524;28;20066;-80
2022/05/11 01:58:36;;;;;;;21.80;8.15;;;;;;;16.89;86.43;100872.00;4983039;28;20039;-80
2022/05/11 02:01:03;;;;;;;20.40;7.13;;;;;;;16.82;86.65;100881.91;4984484;28;20090;-82
2022/05/11 02:03:29;;;;;;;30.58;8.30;;;;;;;16.84;86.64;100889.03;4976404;28;20036;-80
2022/05/11 02:08:44;;;;;;;16.85;7.00;;;;;;;16.84;85.90;100874.31;5004308;28;20038;-82
2022/05/11 02:11:11;;;;;;;18.63;6.70;;;;;;;16.81;86.31;100874.66;5000640;28;20034;-81
2022/05/11 02:13:37;;;;;;;22.88;7.90;;;;;;;16.76;86.14;100853.03;4998595;28;20035;-81
2022/05/11 02:16:03;;;;;;;17.80;6.55;;;;;;;16.81;85.87;100867.22;4976938;28;20038;-79
2022/05/11 02:18:31;;;;;;;15.55;6.68;;;;;;;16.83;85.47;100870.69;4976341;28;20042;-81
2022/05/11 02:20:57;;;;;;;18.75;6.25;;;;;;;16.86;85.91;100872.31;4968137;28;20062;-80
2022/05/11 02:23:24;;;;;;;29.50;6.53;;;;;;;16.88;84.96;100873.88;4987345;28;20057;-82
2022/05/11 02:25:51;;;;;;;24.13;6.10;;;;;;;16.84;85.43;100868.78;5011637;28;20109;-82
2022/05/11 02:28:21;;;;;;;17.88;5.70;;;;;;;16.90;85.53;100862.63;5006193;28;20045;-80
2022/05/11 02:30:47;;;;;;;18.27;6.70;;;;;;;16.88;85.12;100868.34;4979959;28;20026;-81
2022/05/11 02:33:13;;;;;;;17.63;6.38;;;;;;;16.85;85.30;100870.56;4984996;28;20107;-82
2022/05/11 02:35:40;;;;;;;16.15;6.93;;;;;;;16.81;85.33;100867.22;4984523;28;20038;-80
2022/05/11 02:38:09;;;;;;;18.88;6.30;;;;;;;16.79;84.89;100873.94;4986516;28;20041;-82
2022/05/11 02:40:37;;;;;;;18.52;6.13;;;;;;;16.83;85.22;100870.69;4998647;28;20090;-82
2022/05/11 02:43:03;;;;;;;22.48;6.47;;;;;;;16.84;85.11;100868.78;4996603;28;20058;-83
2022/05/11 02:45:32;;;;;;;14.35;5.30;;;;;;;16.88;84.99;100864.72;4971165;28;20038;-82
2022/05/11 02:47:59;;;;;;;14.10;5.70;;;;;;;16.85;85.00;100881.63;5002592;28;20042;-82
2022/05/11 02:50:34;;;;;;;13.52;5.72;;;;;;;16.75;85.36;100867.00;4968875;28;20097;-81
2022/05/11 02:53:02;;;;;;;15.13;6.00;;;;;;;16.84;84.58;100872.44;4967383;28;20072;-81
2022/05/11 02:55:29;;;;;;;19.58;6.57;;;;;;;16.79;84.63;100857.34;5001754;28;20121;-81
2022/05/11 02:57:54;;;;;;;18.75;6.57;;;;;;;16.86;85.07;100867.63;5002339;28;20053;-81
2022/05/11 03:00:20;;;;;;;15.63;6.32;;;;;;;16.82;85.31;100857.91;4969304;28;20046;-82
2022/05/11 03:02:47;;;;;;;19.05;6.57;;;;;;;16.85;84.86;100862.25;5007230;28;20041;-82
2022/05/11 03:05:14;;;;;;;14.30;5.95;;;;;;;16.88;84.41;100864.72;5012557;28;20022;-83
2022/05/11 03:07:40;;;;;;;18.35;6.07;;;;;;;16.84;85.39;100874.31;5001398;28;20038;-83
2022/05/11 03:10:07;;;;;;;16.65;6.25;;;;;;;16.78;84.60;100848.19;4998721;28;20026;-81
2022/05/11 03:12:33;;;;;;;12.63;5.85;;;;;;;16.76;85.52;100861.31;4997649;28;20045;-81
2022/05/11 03:14:59;;;;;;;18.00;5.03;;;;;;;16.78;84.90;100856.50;4993008;28;20038;-81
2022/05/11 03:17:28;;;;;;;18.33;5.78;;;;;;;16.68;85.95;100850.19;4997386;28;20121;-81
2022/05/11 03:19:53;;;;;;;11.48;4.95;;;;;;;16.77;85.96;100859.41;4977760;28;20030;-81
2022/05/11 03:22:18;;;;;;;17.88;5.80;;;;;;;16.73;85.66;100850.56;4981977;28;20058;-81
2022/05/11 03:24:44;;;;;;;16.35;5.35;;;;;;;16.76;86.02;100857.66;4983014;28;20061;-83
2022/05/11 03:27:10;;;;;;;24.98;6.32;;;;;;;16.73;85.95;100859.72;5001052;28;20025;-82
2022/05/11 03:29:36;;;;;;;20.80;5.30;;;;;;;16.68;86.67;100861.25;4982934;28;20046;-81
2022/05/11 03:34:46;;;;;;;14.88;4.85;;;;;;;16.68;86.11;100850.19;5016675;28;20103;-81
2022/05/11 03:37:15;;;;;;;10.98;4.70;;;;;;;16.70;86.51;100857.28;4981460;28;20071;-83
2022/05/11 03:39:41;;;;;;;16.95;5.72;;;;;;;16.67;86.25;100840.16;4997255;28;20035;-80
2022/05/11 03:42:11;;;;;;;13.85;5.60;;;;;;;16.62;86.88;100837.00;4976510;28;20486;-82
2022/05/11 03:44:37;;;;;;;12.93;4.97;;;;;;;16.61;86.94;100843.56;5006458;28;20027;-83
2022/05/11 03:47:03;;;;;;;13.13;5.30;;;;;;;16.57;87.57;100834.72;4976529;28;20081;-82
2022/05/11 03:49:29;;;;;;;15.60;5.03;;;;;;;16.58;87.42;100838.34;5010426;28;20030;-84
2022/05/11 03:51:54;;;;;;;15.05;4.50;;;;;;;16.49;88.01;100835.53;5001857;28;20033;-82
2022/05/11 03:54:20;;;;;;;18.02;4.97;;;;;;;16.43;88.33;100827.91;5003404;28;20049;-82
2022/05/11 03:56:45;;;;;;;14.10;4.70;;;;;;;16.46;88.87;100834.97;4993865;28;20382;-81
2022/05/11 03:59:11;;;;;;;18.77;5.07;;;;;;;16.39;88.91;100837.53;4984127;28;20046;-81
2022/05/11 04:01:36;;;;;;;15.32;5.05;;;;;;;16.33;89.59;100830.75;4964159;28;20080;-82
2022/05/11 04:04:03;;;;;;;13.80;5.00;;;;;;;16.34;89.05;100829.72;4967624;28;20049;-82
2022/05/11 04:06:29;;;;;;;11.63;5.15;;;;;;;16.29;90.15;100818.28;4970044;28;20096;-82
2022/05/11 04:08:55;;;;;;;15.65;5.03;;;;;;;16.26;90.70;100818.59;4951737;28;20042;-82
2022/05/11 04:11:22;;;;;;;17.15;4.63;;;;;;;16.26;90.92;100826.03;5013172;28;20039;-81
2022/05/11 04:13:52;;;;;;;19.42;5.40;;;;;;;16.24;90.93;100822.56;5012503;28;20031;-81
2022/05/11 04:16:18;;;;;;;10.68;4.50;;;;;;;16.15;91.38;100808.69;4982992;28;20047;-82
2022/05/11 04:18:45;;;;;;;8.88;4.38;;;;;;;16.15;91.97;100816.06;5006428;28;20034;-82
2022/05/11 04:21:11;;;;;;;12.80;5.32;;;;;;;16.09;93.06;100825.00;4995895;28;20402;-82
2022/05/11 04:23:40;;;;;;;9.73;4.65;;;;;;;16.10;92.75;100822.09;5008783;28;20042;-82
2022/05/11 04:26:07;;;;;;;13.13;4.95;;;;;;;16.12;93.09;100821.94;4991702;28;20121;-78
2022/05/11 04:28:35;;;;;;;11.25;6.18;;;;;;;16.10;93.04;100816.56;4959597;28;20041;-78
2022/05/11 04:31:06;;;;;;;21.73;5.32;;;;;;;16.06;94.81;100811.53;4995695;28;20042;-79
2022/05/11 04:33:32;;;;;;;24.67;5.30;;;;;;;15.98;94.49;100813.16;5011889;28;20042;-80
2022/05/11 04:35:58;;;;;;;17.92;4.97;;;;;;;16.03;94.39;100812.69;4994478;28;20053;-82
2022/05/11 04:38:23;;;;;;;15.80;4.55;;;;;;;15.92;95.45;100807.41;4992546;28;20042;-79
2022/05/11 04:40:52;;;;;;;13.68;5.13;;;;;;;15.97;95.48;100813.31;4981455;28;20026;-78
2022/05/11 04:43:17;;;;;;;16.83;4.72;;;;;;;15.90;95.46;100803.94;4983619;28;20129;-78
2022/05/11 04:45:44;;;;;;;12.02;4.57;;;;;;;15.95;95.27;100804.31;4995644;28;20062;-78
2022/05/11 04:48:11;;;;;;;9.23;4.40;;;;;;;15.92;95.44;100818.44;4992317;28;20043;-77
2022/05/11 04:50:42;;;;;;;12.52;4.63;;;;;;;15.93;95.71;100812.75;4965107;28;20117;-78
2022/05/11 04:53:09;;;;;;;8.75;4.47;;;;;;;15.95;96.25;100804.31;4995519;28;20042;-78
2022/05/11 04:55:35;;;;;;;13.68;5.15;;;;;;;15.99;95.90;100814.03;4991446;28;21536;-78
2022/05/11 04:58:01;;;;;;;9.80;4.25;;;;;;;16.01;95.47;100812.00;4993144;28;20379;-78
2022/05/11 05:00:28;;;;;;;10.23;4.50;;;;;;;15.99;95.76;100820.44;4991315;28;20030;-81
2022/05/11 05:02:53;;;;;;;11.07;4.68;;;;;;;15.99;95.15;100814.91;4964424;28;20042;-78
2022/05/11 05:05:19;;;;;;;11.15;4.50;;;;;;;16.04;95.85;100817.19;4948297;28;20121;-77
2022/05/11 05:07:45;;;;;;;8.93;3.85;;;;;;;16.04;96.12;100819.09;4996863;28;20041;-78
2022/05/11 05:10:13;;;;;;;17.75;4.13;;;;;;;16.15;95.66;100824.34;5011131;28;20034;-78
2022/05/11 05:12:42;;;;;;;11.45;3.95;;;;;;;16.17;95.24;100823.19;5011139;28;20362;-77
2022/05/11 05:15:10;;;;;;;10.70;3.92;;;;;;;16.27;95.21;100825.84;4985731;28;20035;-78
2022/05/11 05:17:37;;;;;;;10.02;3.83;;;;;;;16.30;93.88;100817.25;4960650;28;20063;-77
2022/05/11 05:20:04;;;;;;;10.55;3.63;;;;;;;16.43;93.94;100821.47;4979536;28;20065;-79
2022/05/11 05:22:30;;;;;;;8.45;3.53;;;;;;;16.54;93.04;100822.13;4982998;28;20053;-78
2022/05/11 05:24:55;;;;;;;10.18;3.85;;;;;;;16.66;91.98;100819.94;4981865;28;20030;-78
2022/05/11 05:27:24;;;;;;;5.90;3.40;;;;;;;16.86;91.40;100826.16;4998050;28;20474;-76
2022/05/11 05:32:35;;;;;;;13.50;3.65;;;;;;;17.04;89.79;100815.03;4991965;28;20046;-78
2022/05/11 05:35:01;;;;;;;10.35;3.38;;;;;;;17.23;89.74;100821.31;4996129;28;20429;-78
2022/05/11 05:37:26;;;;;;;5.07;3.33;;;;;;;17.51;87.53;100818.31;4994625;28;20038;-78
2022/05/11 05:39:52;;;;;;;6.90;3.00;;;;;;;17.67;86.81;100826.69;4975920;28;20461;-78
2022/05/11 05:42:24;;;;;;;6.13;3.45;;;;;;;17.63;87.18;100831.69;4994893;28;20034;-78
2022/05/11 05:44:49;;;;;;;11.07;3.83;;;;;;;17.80;85.59;100829.81;5000067;28;20053;-78
2022/05/11 05:47:18;;;;;;;10.32;3.63;;;;;;;17.77;85.51;100821.88;4984209;28;20125;-81
2022/05/11 05:49:44;;;;;;;8.52;3.13;;;;;;;17.87;85.69;100821.72;4965023;28;20474;-79
2022/05/11 05:52:16;;;;;;;7.53;3.65;;;;;;;17.90;84.65;100823.31;4971834;28;20486;-78
2022/05/11 05:54:42;;;;;;;7.50;3.25;;;;;;;17.92;85.11;100821.22;4992617;28;20065;-78
2022/05/11 05:57:07;;;;;;;24.52;4.03;;;;;;;18.11;84.57;100820.91;4995976;28;20070;-79
2022/05/11 05:59:33;;;;;;;13.57;3.60;;;;;;;18.37;83.45;100822.66;4995896;28;20486;-80
2022/05/11 06:01:59;;;;;;;5.70;2.92;;;;;;;18.43;81.60;100823.84;4997454;28;20180;-80
2022/05/11 06:04:24;;;;;;;11.95;3.65;;;;;;;18.47;81.81;100823.34;4998548;28;20060;-77
2022/05/11 06:06:50;;;;;;;46.45;4.53;;;;;;;17.96;83.57;100820.72;4996689;28;20745;-79
2022/05/11 06:09:15;;;;;;;5.93;3.03;;;;;;;19.04;80.05;100829.88;4995001;28;20039;-79
2022/05/11 06:11:41;;;;;;;4.57;2.75;;;;;;;19.44;77.88;100823.28;4993400;28;20470;-80
2022/05/11 06:14:07;;;;;;;7.20;3.00;;;;;;;19.08;78.83;100829.31;4995656;28;20042;-80
2022/05/11 06:16:32;;;;;;;6.85;2.50;;;;;;;19.06;78.53;100830.56;4965412;28;20042;-79
2022/05/11 06:18:58;;;;;;;7.85;2.47;;;;;;;19.08;78.56;100836.78;4999232;28;20101;-78
2022/05/11 06:21:24;;;;;;;8.60;2.50;;;;;;;19.10;76.50;100832.81;4999224;28;20458;-81
2022/05/11 06:23:51;;;;;;;9.48;2.45;;;;;;;19.58;76.21;100832.78;5019290;28;20058;-77
2022/05/11 06:26:17;;;;;;;8.65;2.13;;;;;;;18.87;76.71;100832.69;5005285;28;20058;-79
2022/05/11 06:28:45;;;;;;;10.70;2.38;;;;;;;18.83;76.89;100833.19;5005114;28;20026;-78
2022/05/11 06:31:12;;;;;;;4.45;2.10;;;;;;;19.85;74.83;100838.91;5012468;28;20031;-80
2022/05/11 06:33:37;;;;;;;9.88;2.03;;;;;;;20.18;70.83;100825.69;4983026;28;20077;-79
2022/05/11 06:36:05;;;;;;;3.92;1.90;;;;;;;20.30;69.39;100826.09;4991555;28;20039;-79
2022/05/11 06:38:31;;;;;;;9.52;2.03;;;;;;;19.89;71.17;100820.84;4996381;28;20034;-80
2022/05/11 06:41:06;;;;;;;9.80;2.40;;;;;;;20.49;69.71;100835.84;5013889;28;20042;-81
2022/05/11 06:43:32;;;;;;;5.00;1.92;;;;;;;20.68;67.18;100826.13;5000669;28;20027;-80
2022/05/11 06:45:58;;;;;;;5.25;1.95;;;;;;;21.34;64.40;100814.28;4997105;28;20035;-78
2022/05/11 06:48:23;;;;;;;8.32;1.50;;;;;;;21.26;63.42;100811.59;4965604;28;20106;-78
2022/05/11 06:50:49;;;;;;;7.78;1.60;;;;;;;20.62;63.92;100824.06;5014198;28;20042;-79
2022/05/11 06:53:14;;;;;;;6.53;1.35;;;;;;;21.04;62.60;100819.00;4981984;28;20062;-79
2022/05/11 07:01:13;;;;;;;5.07;1.33;;;;;;;20.55;61.81;100817.53;4985384;28;20042;-79
2022/05/11 07:03:39;;;;;;;4.68;1.25;;;;;;;21.26;61.34;100822.72;4966056;28;20066;-78
2022/05/11 07:06:05;;;;;;;11.18;1.05;;;;;;;22.00;58.58;100824.53;4999940;28;20069;-80
2022/05/11 07:08:36;;;;;;;4.50;1.40;;;;;;;21.35;60.48;100816.00;4982691;28;20129;-80
2022/05/11 07:13:46;;;;;;;8.40;1.67;;;;;;;21.66;59.20;100812.13;4990992;28;20058;-79
2022/05/11 07:16:12;;;;;;;12.77;1.52;;;;;;;20.97;59.76;100818.88;4977802;28;20498;-78
2022/05/11 07:18:38;;;;;;;3.95;1.30;;;;;;;21.84;57.94;100829.31;4996880;28;20042;-79
2022/05/11 07:21:05;;;;;;;7.35;1.63;;;;;;;21.25;57.69;100818.19;4966533;28;20474;-78
2022/05/11 07:23:31;;;;;;;8.05;2.03;;;;;;;21.93;57.47;100821.66;4997401;28;20062;-80
2022/05/11 07:25:57;;;;;;;7.40;1.30;;;;;;;21.90;58.30;100818.41;4981981;28;20034;-79
2022/05/11 07:28:22;;;;;;;5.55;1.50;;;;;;;22.10;57.23;100815.84;4997644;28;20076;-79
2022/05/11 07:30:48;;;;;;;6.10;1.13;;;;;;;22.10;57.04;100818.63;4997445;28;20038;-78
2022/05/11 07:33:17;;;;;;;13.57;1.60;;;;;;;22.15;56.73;100818.91;4981137;28;20039;-80
2022/05/11 07:35:44;;;;;;;7.30;1.30;;;;;;;21.36;57.76;100819.66;4997122;28;20026;-80
2022/05/11 07:38:13;;;;;;;7.63;1.40;;;;;;;21.28;58.53;100812.25;4999672;28;20093;-80
2022/05/11 07:40:40;;;;;;;6.30;1.15;;;;;;;22.25;57.00;100821.34;5015248;28;20030;-80
2022/05/11 07:43:06;;;;;;;9.80;1.55;;;;;;;22.62;55.13;100816.59;4981902;28;20038;-80
2022/05/11 07:45:34;;;;;;;7.80;1.48;;;;;;;22.63;55.51;100815.50;4997473;28;20073;-80
2022/05/11 07:48:00;;;;;;;5.93;1.58;;;;;;;22.14;57.17;100819.97;4982749;28;20030;-81
2022/05/11 07:50:25;;;;;;;9.85;2.17;;;;;;;22.00;57.38;100830.09;4967490;28;20485;-79
2022/05/11 07:52:51;;;;;;;8.05;1.63;;;;;;;22.33;56.28;100812.88;4998956;28;20101;-79
2022/05/11 07:55:17;;;;;;;5.18;2.00;;;;;;;22.42;57.32;100814.47;5000409;28;20042;-79
2022/05/11 08:00:29;;;;;;;7.85;2.20;;;;;;;22.17;58.49;100823.22;4981106;28;20050;-79
2022/05/11 08:02:56;;;;;;;12.75;2.33;;;;;;;22.50;57.78;100819.91;4980609;28;20545;-81
2022/05/11 08:05:22;;;;;;;15.80;1.88;;;;;;;22.97;55.40;100813.84;4982622;28;20206;-79
2022/05/11 08:07:53;;;;;;;9.75;2.35;;;;;;;22.76;56.75;100816.50;4984375;28;20047;-79
2022/05/11 08:10:30;;;;;;;14.07;2.05;;;;;;;23.28;56.22;100802.22;4998422;28;20486;-78
2022/05/11 08:12:56;;;;;;;5.93;2.10;;;;;;;22.79;56.34;100806.81;4966817;28;20043;-78
2022/05/11 08:15:24;;;;;;;9.23;1.70;;;;;;;23.40;56.53;100814.56;4983142;28;20089;-78
2022/05/11 08:17:51;;;;;;;13.48;1.90;;;;;;;23.58;55.25;100811.19;4983228;28;20057;-78
2022/05/11 08:20:23;;;;;;;9.05;2.00;;;;;;;23.06;55.20;100816.25;4980534;28;20078;-78
2022/05/11 08:22:51;;;;;;;6.90;2.08;;;;;;;23.85;54.25;100802.94;4981051;28;20069;-79
2022/05/11 08:25:22;;;;;;;13.40;2.45;;;;;;;23.87;54.92;100814.75;4983328;28;20062;-78
2022/05/11 08:27:50;;;;;;;6.93;2.10;;;;;;;23.43;53.98;100808.56;4983952;28;20023;-77
2022/05/11 08:33:24;;;;;;;15.40;2.53;;;;;;;23.34;55.45;100815.38;4979699;28;20031;-78
2022/05/11 08:36:00;;;;;;;14.18;2.25;;;;;;;23.58;54.82;100801.94;4966764;28;20043;-78
2022/05/11 08:38:30;;;;;;;7.10;2.10;;;;;;;23.68;55.37;100803.28;4973436;28;20022;-77
2022/05/11 08:41:05;;;;;;;7.32;2.53;;;;;;;23.49;56.36;100812.44;5002442;28;20118;-78
2022/05/11 08:43:33;;;;;;;7.45;2.70;;;;;;;23.04;56.10;100810.03;4998769;28;20091;-79
2022/05/11 08:46:22;;;;;;;12.73;2.05;;;;;;;23.72;55.43;100803.72;5000845;28;20030;-79
2022/05/11 08:48:54;;;;;;;6.95;2.08;;;;;;;24.08;54.25;100805.34;5002388;28;20409;-77
2022/05/11 08:51:25;;;;;;;;;;;;;;;24.05;54.00;100802.97;5003875;28;20039;-78
2022/05/11 08:54:11;;;;;;;13.52;2.85;;;;;;;23.24;55.65;100801.78;5004093;28;19920;-78
2022/05/11 08:56:38;;;;;;;14.68;2.88;;;;;;;22.82;56.66;100800.84;5002291;28;20034;-79
2022/05/11 08:59:12;;;;;;;11.43;2.55;;;;;;;23.21;56.01;100795.75;4987929;28;20026;-79
2022/05/11 09:01:49;;;;;;;13.63;2.60;;;;;;;23.65;54.21;100803.69;4987044;28;20034;-79
2022/05/11 09:04:28;;;;;;;8.85;2.47;;;;;;;23.65;55.47;100800.91;5000484;28;20034;-79
2022/05/11 09:07:01;;;;;;;11.02;2.10;;;;;;;23.88;53.81;100794.13;5017318;28;20077;-79
2022/05/11 09:09:27;;;;;;;17.40;2.33;;;;;;;24.68;52.42;100802.66;4985651;28;20509;-80
2022/05/11 09:11:54;;;;;;;14.25;2.65;;;;;;;23.91;53.28;100815.19;4983160;28;20038;-78
2022/05/11 09:14:34;;;;;;;7.13;2.10;;;;;;;24.09;53.36;100803.41;5000761;28;20034;-79
2022/05/11 09:17:02;;;;;;;9.70;2.55;;;;;;;23.53;54.29;100791.41;4981515;28;20035;-79
2022/05/11 09:19:32;;;;;;;16.08;2.80;;;;;;;23.49;53.86;100781.69;4981687;28;20105;-80
2022/05/11 09:22:17;;;;;;;10.18;3.22;;;;;;;23.54;54.26;100779.13;4980110;28;20106;-77
2022/05/11 09:24:46;;;;;;;14.30;2.40;;;;;;;24.17;52.01;100792.00;4995716;28;20054;-78
2022/05/11 09:27:25;;;;;;;7.75;2.42;;;;;;;23.23;54.36;100776.84;4989402;28;20086;-79
2022/05/11 09:30:01;;;;;;;9.52;2.55;;;;;;;23.03;55.11;100777.56;4999337;28;20076;-79
2022/05/11 09:32:33;;;;;;;13.02;2.65;;;;;;;23.88;54.17;100782.09;5015541;28;20108;-78
2022/05/11 09:35:18;;;;;;;13.82;3.17;;;;;;;24.63;51.10;100784.75;5000948;28;20069;-79
2022/05/11 09:37:45;;;;;;;13.77;2.88;;;;;;;23.78;52.98;100774.06;5014943;28;20038;-81
2022/05/11 09:40:20;;;;;;;14.80;2.80;;;;;;;24.32;52.54;100778.69;5000109;28;20085;-78
2022/05/11 09:42:59;;;;;;;12.57;2.60;;;;;;;24.57;51.50;100778.09;4982104;28;20034;-78
2022/05/11 09:45:39;;;;;;;13.90;2.60;;;;;;;23.79;53.34;100785.03;5000727;28;20525;-79
2022/05/11 09:48:12;;;;;;;14.43;2.80;;;;;;;24.23;52.68;100791.16;4997086;28;20057;-79
2022/05/11 09:50:43;;;;;;;18.50;3.38;;;;;;;24.69;51.60;100792.28;5000357;28;20030;-79
2022/05/11 09:53:26;;;;;;;42.60;4.75;;;;;;;24.91;50.76;100792.94;5014067;28;20474;-78
2022/05/11 09:55:52;;;;;;;14.23;2.80;;;;;;;24.06;52.04;100784.28;5009552;28;20031;-78
2022/05/11 09:58:33;;;;;;;15.65;2.90;;;;;;;24.60;50.47;100780.47;4993689;28;20102;-77
2022/05/11 10:01:26;;;;;;;13.25;2.65;;;;;;;24.77;51.94;100778.91;4982810;28;20123;-78
2022/05/11 10:04:00;;;;;;;11.30;2.88;;;;;;;24.86;50.67;100782.38;5000267;28;20038;-78
2022/05/11 10:06:29;;;;;;;15.18;3.10;;;;;;;25.12;51.49;100780.56;4997913;28;20532;-79
2022/05/11 10:08:56;;;;;;;10.73;2.67;;;;;;;24.98;49.55;100784.50;4997261;28;20042;-79
2022/05/11 10:11:39;;;;;;;11.23;3.50;;;;;;;24.49;51.29;100781.94;4986093;28;20042;-78
2022/05/11 10:22:59;;;;;;;10.25;3.50;;;;;;;24.54;51.59;100775.69;4997693;28;20030;-77
2022/05/11 10:25:37;;;;;;;12.63;3.35;;;;;;;24.75;50.28;100752.22;4994245;28;20117;-77
2022/05/11 10:28:24;;;;;;;12.18;3.05;;;;;;;24.70;50.99;100752.88;4976756;28;20062;-77
2022/05/11 10:31:29;;;;;;;13.02;3.17;;;;;;;25.18;49.40;100753.63;4982137;28;20043;-79
2022/05/11 10:33:58;;;;;;;11.75;3.50;;;;;;;24.72;51.03;100749.84;4963942;28;20080;-79
2022/05/11 10:36:29;;;;;;;17.70;3.15;;;;;;;25.00;49.93;100752.38;4997212;28;20039;-79
2022/05/11 10:39:33;;;;;;;17.02;3.33;;;;;;;24.96;49.40;100748.31;5013541;28;20093;-78
2022/05/11 10:42:19;;;;;;;12.25;2.75;;;;;;;24.83;49.89;100738.00;5014555;28;20448;-79
2022/05/11 10:45:16;;;;;;;9.68;3.47;;;;;;;24.37;51.04;100734.13;4994203;28;20062;-78
2022/05/11 10:47:53;;;;;;;15.50;3.95;;;;;;;24.78;50.95;100735.00;5009212;28;20045;-80
2022/05/11 10:50:31;;;;;;;13.90;3.20;;;;;;;24.72;50.87;100731.09;5002715;28;20394;-79
2022/05/11 10:53:19;;;;;;;11.02;2.85;;;;;;;24.89;48.25;100734.31;5003896;28;20026;-79
2022/05/11 10:55:56;;;;;;;15.57;3.28;;;;;;;24.62;48.78;100733.50;5001589;28;20035;-78
2022/05/11 10:59:00;;;;;;;18.55;3.20;;;;;;;24.93;48.74;100729.13;5000922;28;20525;-78
2022/05/11 11:01:40;;;;;;;12.23;3.13;;;;;;;24.68;48.79;100724.22;4887493;29;20070;-79
2022/05/11 11:04:27;;;;;;;14.55;3.70;;;;;;;24.69;48.91;100731.53;4900456;29;20052;-79
2022/05/11 11:07:16;;;;;;;12.95;3.38;;;;;;;24.47;49.63;100724.44;4939777;28;20474;-78
2022/05/11 11:10:03;;;;;;;11.90;3.10;;;;;;;24.77;48.92;100719.25;4978672;28;20035;-81
2022/05/11 11:13:06;;;;;;;12.40;2.90;;;;;;;24.65;49.28;100715.41;4996856;28;20026;-79
2022/05/11 11:15:35;;;;;;;;;;;;;;;24.60;49.06;100718.88;4987143;28;20042;-78
2022/05/11 11:18:03;;;;;;;13.50;2.88;;;;;;;25.19;48.55;100710.53;4997915;28;19914;-79
2022/05/11 11:20:37;;;;;;;12.98;2.90;;;;;;;25.65;46.22;100723.47;4998176;28;20037;-80
2022/05/11 11:23:14;;;;;;;12.48;2.72;;;;;;;25.21;47.80;100712.00;4996381;28;20440;-78
2022/05/11 11:25:42;;;;;;;11.98;2.65;;;;;;;25.84;45.46;100713.19;4997375;28;20041;-80
2022/05/11 11:28:12;;;;;;;9.80;2.50;;;;;;;25.87;45.50;100712.75;4987518;28;20494;-80
2022/05/11 11:30:40;;;;;;;22.70;3.00;;;;;;;25.17;47.20;100702.34;4996769;28;20068;-80
2022/05/11 11:33:10;;;;;;;10.85;3.05;;;;;;;25.24;47.44;100699.50;5014177;28;20034;-81
2022/05/11 11:35:51;;;;;;;16.65;2.85;;;;;;;24.76;47.86;100684.78;4999553;28;20035;-81
2022/05/11 11:38:45;;;;;;;18.75;2.83;;;;;;;25.73;46.57;100686.75;4983316;28;20022;-81
2022/05/11 11:41:18;;;;;;;21.75;3.30;;;;;;;25.02;47.96;100682.13;5014651;28;20113;-80
2022/05/11 11:43:50;;;;;;;13.55;2.75;;;;;;;25.66;47.48;100680.28;4991730;28;20398;-80
2022/05/11 11:46:43;;;;;;;12.40;3.03;;;;;;;25.73;46.50;100675.53;4987630;28;20038;-81
2022/05/11 11:49:32;;;;;;;12.48;2.70;;;;;;;25.33;47.99;100678.56;4994277;28;20044;-79
2022/05/11 11:52:04;;;;;;;9.93;3.00;;;;;;;25.31;46.25;100680.72;4998544;28;20030;-82
2022/05/11 11:54:36;;;;;;;12.70;2.70;;;;;;;25.57;46.20;100681.66;4997756;28;20061;-81
2022/05/11 11:57:25;;;;;;;15.75;2.45;;;;;;;25.52;46.73;100681.50;4998105;28;20050;-79
2022/05/11 11:59:59;;;;;;;14.93;2.67;;;;;;;25.70;46.69;100670.38;5013770;28;20101;-79
2022/05/11 12:02:30;;;;;;;12.82;2.75;;;;;;;25.67;46.05;100674.47;4997887;28;20121;-81
2022/05/11 12:05:24;;;;;;;15.43;3.10;;;;;;;25.16;46.54;100668.94;4997290;28;20137;-80